EZY464 EGKK-EGJJ
Flight info
| Callsign | EZY464 |
|---|---|
| Flight time | 0h 39m |
| Altitude | 24000 |
| Route | IMVUR N63 LELNA |
| Aircraft | A320/M-SDE3FGHIRWY/LB1 |
Departure
| Time | 2026-05-04 11:16 |
|---|---|
| Airport | London Gatwick Airport (EGKK) |
Arrival
| Time | 2026-05-04 11:55 |
|---|---|
| Airport | Jersey Airport (EGJJ) |
| Time | Latitude | Longitude | Altitude | Speed | Heading |
|---|---|---|---|---|---|
| 2026-05-04 10:42 | 51.15859 | -0.17526 | 205 ft | 0 kts | 347° |
| 2026-05-04 10:59 | 51.15850 | -0.17523 | 205 ft | 4 kts | 347° |
| 2026-05-04 10:59 | 51.15824 | -0.17512 | 209 ft | 4 kts | 343° |
| 2026-05-04 10:59 | 51.15798 | -0.17498 | 210 ft | 4 kts | 335° |
| 2026-05-04 10:59 | 51.15776 | -0.17477 | 210 ft | 4 kts | 307° |
| 2026-05-04 11:00 | 51.15770 | -0.17454 | 205 ft | 0 kts | 258° |
| 2026-05-04 11:05 | 51.15361 | -0.17377 | 214 ft | 0 kts | 166° |
| 2026-05-04 11:06 | 51.15354 | -0.17374 | 212 ft | 6 kts | 166° |
| 2026-05-04 11:06 | 51.15288 | -0.17349 | 208 ft | 10 kts | 168° |
| 2026-05-04 11:08 | 51.15079 | -0.18441 | 207 ft | 18 kts | 257° |
| 2026-05-04 11:10 | 51.14898 | -0.19754 | 211 ft | 19 kts | 257° |
| 2026-05-04 11:12 | 51.14707 | -0.21130 | 210 ft | 9 kts | 257° |
| 2026-05-04 11:12 | 51.14698 | -0.21196 | 205 ft | 0 kts | 257° |
| 2026-05-04 11:13 | 51.14694 | -0.21220 | 210 ft | 5 kts | 257° |
| 2026-05-04 11:13 | 51.14688 | -0.21274 | 207 ft | 4 kts | 262° |
| 2026-05-04 11:13 | 51.14677 | -0.21318 | 207 ft | 8 kts | 231° |
| 2026-05-04 11:13 | 51.14587 | -0.21312 | 213 ft | 14 kts | 159° |
| 2026-05-04 11:14 | 51.14527 | -0.21219 | 211 ft | 12 kts | 108° |
| 2026-05-04 11:14 | 51.14533 | -0.21090 | 207 ft | 16 kts | 79° |
| 2026-05-04 11:14 | 51.14608 | -0.20556 | 211 ft | 85 kts | 77° |
| 2026-05-04 11:16 | 51.16497 | -0.07067 | 2503 ft | 227 kts | 68° |
| 2026-05-04 11:16 | 51.17578 | -0.05270 | 3017 ft | 232 kts | 23° |
| 2026-05-04 11:16 | 51.19169 | -0.04968 | 3894 ft | 234 kts | 355° |
| 2026-05-04 11:17 | 51.20782 | -0.05396 | 4769 ft | 236 kts | 343° |
| 2026-05-04 11:17 | 51.22148 | -0.06817 | 5532 ft | 240 kts | 306° |
| 2026-05-04 11:19 | 51.20671 | -0.27984 | 8244 ft | 333 kts | 258° |
| 2026-05-04 11:19 | 51.20250 | -0.31577 | 9144 ft | 336 kts | 258° |
| 2026-05-04 11:19 | 51.19821 | -0.35262 | 9884 ft | 339 kts | 258° |
| 2026-05-04 11:19 | 51.19366 | -0.38958 | 10655 ft | 342 kts | 257° |
| 2026-05-04 11:20 | 51.18883 | -0.42692 | 11396 ft | 345 kts | 257° |
| 2026-05-04 11:20 | 51.18381 | -0.46458 | 12113 ft | 349 kts | 256° |
| 2026-05-04 11:20 | 51.17871 | -0.50260 | 12829 ft | 353 kts | 256° |
| 2026-05-04 11:20 | 51.17251 | -0.54053 | 13518 ft | 356 kts | 248° |
| 2026-05-04 11:22 | 51.10323 | -0.80009 | 17016 ft | 376 kts | 245° |
| 2026-05-04 11:22 | 51.09299 | -0.83835 | 17075 ft | 378 kts | 245° |
| 2026-05-04 11:23 | 51.08262 | -0.87696 | 17686 ft | 380 kts | 245° |
| 2026-05-04 11:23 | 51.07215 | -0.91575 | 18292 ft | 383 kts | 245° |
| 2026-05-04 11:24 | 51.00769 | -1.15341 | 21409 ft | 397 kts | 245° |
| 2026-05-04 11:25 | 50.99682 | -1.19319 | 21896 ft | 399 kts | 245° |
| 2026-05-04 11:25 | 50.98558 | -1.23426 | 22394 ft | 402 kts | 245° |
| 2026-05-04 11:25 | 50.97445 | -1.27448 | 22857 ft | 404 kts | 243° |
| 2026-05-04 11:26 | 50.94170 | -1.34589 | 23031 ft | 400 kts | 221° |
| 2026-05-04 11:27 | 50.77106 | -1.49189 | 23028 ft | 399 kts | 206° |
| 2026-05-04 11:28 | 50.74578 | -1.51198 | 23028 ft | 413 kts | 206° |
| 2026-05-04 11:28 | 50.71982 | -1.53253 | 23026 ft | 421 kts | 206° |
| 2026-05-04 11:28 | 50.69359 | -1.55322 | 23026 ft | 423 kts | 206° |
| 2026-05-04 11:28 | 50.66761 | -1.57370 | 23027 ft | 423 kts | 206° |
| 2026-05-04 11:29 | 50.64126 | -1.59449 | 23024 ft | 423 kts | 206° |
| 2026-05-04 11:29 | 50.61501 | -1.61523 | 23024 ft | 421 kts | 206° |
| 2026-05-04 11:29 | 50.58879 | -1.63591 | 23027 ft | 420 kts | 206° |
| 2026-05-04 11:29 | 50.56263 | -1.65655 | 23027 ft | 420 kts | 206° |
| 2026-05-04 11:31 | 50.37975 | -1.79973 | 23031 ft | 417 kts | 206° |
| 2026-05-04 11:33 | 50.19821 | -1.94062 | 23032 ft | 417 kts | 206° |
| 2026-05-04 11:33 | 50.17223 | -1.96069 | 23036 ft | 417 kts | 206° |
| 2026-05-04 11:33 | 50.14631 | -1.98070 | 23032 ft | 415 kts | 206° |
| 2026-05-04 11:34 | 50.12078 | -2.00039 | 23027 ft | 400 kts | 206° |
| 2026-05-04 11:34 | 50.09638 | -2.01919 | 23031 ft | 384 kts | 205° |
| 2026-05-04 11:34 | 50.07256 | -2.03747 | 23032 ft | 380 kts | 205° |
| 2026-05-04 11:34 | 50.04892 | -2.05555 | 23032 ft | 379 kts | 205° |
| 2026-05-04 11:35 | 50.02521 | -2.07363 | 23035 ft | 379 kts | 205° |
| 2026-05-04 11:35 | 50.00158 | -2.09170 | 23032 ft | 378 kts | 205° |
| 2026-05-04 11:35 | 49.97724 | -2.10726 | 23032 ft | 377 kts | 197° |
| 2026-05-04 11:35 | 49.95217 | -2.11695 | 22821 ft | 367 kts | 193° |
| 2026-05-04 11:36 | 49.92745 | -2.12556 | 22337 ft | 361 kts | 192° |
| 2026-05-04 11:36 | 49.90301 | -2.13393 | 21775 ft | 358 kts | 192° |
| 2026-05-04 11:36 | 49.87870 | -2.14216 | 21215 ft | 357 kts | 192° |
| 2026-05-04 11:36 | 49.85451 | -2.15036 | 20680 ft | 356 kts | 192° |
| 2026-05-04 11:37 | 49.83035 | -2.15855 | 20142 ft | 354 kts | 192° |
| 2026-05-04 11:37 | 49.80631 | -2.16667 | 19615 ft | 354 kts | 192° |
| 2026-05-04 11:37 | 49.78227 | -2.17477 | 19098 ft | 353 kts | 191° |
| 2026-05-04 11:37 | 49.75865 | -2.18278 | 18785 ft | 353 kts | 191° |
| 2026-05-04 11:38 | 49.73464 | -2.19093 | 18518 ft | 351 kts | 191° |
| 2026-05-04 11:38 | 49.71084 | -2.19902 | 18036 ft | 349 kts | 192° |
| 2026-05-04 11:38 | 49.68731 | -2.20803 | 17517 ft | 348 kts | 194° |
| 2026-05-04 11:38 | 49.66407 | -2.21818 | 17021 ft | 346 kts | 195° |
| 2026-05-04 11:39 | 49.64101 | -2.22888 | 16517 ft | 345 kts | 196° |
| 2026-05-04 11:39 | 49.61805 | -2.23969 | 16024 ft | 344 kts | 196° |
| 2026-05-04 11:40 | 49.48158 | -2.30098 | 13008 ft | 337 kts | 194° |
| 2026-05-04 11:41 | 49.45915 | -2.31084 | 12525 ft | 334 kts | 195° |
| 2026-05-04 11:41 | 49.43688 | -2.32065 | 12018 ft | 332 kts | 195° |
| 2026-05-04 11:41 | 49.41476 | -2.33043 | 11516 ft | 330 kts | 195° |
| 2026-05-04 11:41 | 49.39291 | -2.33993 | 11227 ft | 321 kts | 194° |
| 2026-05-04 11:42 | 49.37158 | -2.34910 | 10852 ft | 317 kts | 194° |
| 2026-05-04 11:42 | 49.35045 | -2.35813 | 10436 ft | 314 kts | 194° |
| 2026-05-04 11:42 | 49.32975 | -2.36694 | 10297 ft | 302 kts | 194° |
| 2026-05-04 11:42 | 49.30989 | -2.37550 | 10174 ft | 291 kts | 197° |
| 2026-05-04 11:43 | 49.29132 | -2.38644 | 10047 ft | 281 kts | 203° |
| 2026-05-04 11:43 | 49.27391 | -2.39953 | 9798 ft | 276 kts | 206° |
| 2026-05-04 11:43 | 49.25705 | -2.41237 | 9664 ft | 265 kts | 202° |
| 2026-05-04 11:43 | 49.23950 | -2.41801 | 9532 ft | 254 kts | 182° |
| 2026-05-04 11:44 | 49.22243 | -2.42157 | 9382 ft | 241 kts | 199° |
| 2026-05-04 11:44 | 49.20752 | -2.43144 | 9003 ft | 234 kts | 205° |
| 2026-05-04 11:44 | 49.19302 | -2.44245 | 8517 ft | 232 kts | 205° |
| 2026-05-04 11:44 | 49.17861 | -2.45357 | 8037 ft | 231 kts | 206° |
| 2026-05-04 11:45 | 49.16436 | -2.46460 | 7534 ft | 229 kts | 206° |
| 2026-05-04 11:45 | 49.15017 | -2.47564 | 7032 ft | 228 kts | 208° |
| 2026-05-04 11:45 | 49.13862 | -2.49178 | 6538 ft | 228 kts | 239° |
| 2026-05-04 11:45 | 49.13471 | -2.51504 | 6030 ft | 230 kts | 272° |
| 2026-05-04 11:46 | 49.13951 | -2.53822 | 5494 ft | 232 kts | 305° |
| 2026-05-04 11:46 | 49.15166 | -2.55397 | 4994 ft | 231 kts | 334° |
| 2026-05-04 11:46 | 49.16719 | -2.55916 | 4466 ft | 230 kts | 0° |
| 2026-05-04 11:46 | 49.18314 | -2.55946 | 3923 ft | 229 kts | 9° |
| 2026-05-04 11:47 | 49.19674 | -2.54895 | 3518 ft | 218 kts | 54° |
| 2026-05-04 11:47 | 49.20135 | -2.52843 | 3378 ft | 199 kts | 95° |
| 2026-05-04 11:47 | 49.19683 | -2.50961 | 3124 ft | 191 kts | 133° |
| 2026-05-04 11:47 | 49.18552 | -2.49986 | 3011 ft | 192 kts | 173° |
| 2026-05-04 11:48 | 49.17251 | -2.50358 | 3007 ft | 196 kts | 211° |
| 2026-05-04 11:48 | 49.16229 | -2.51750 | 3014 ft | 200 kts | 231° |
| 2026-05-04 11:48 | 49.15582 | -2.53613 | 3006 ft | 201 kts | 261° |
| 2026-05-04 11:48 | 49.15722 | -2.55727 | 3012 ft | 202 kts | 291° |
| 2026-05-04 11:49 | 49.16578 | -2.57373 | 3003 ft | 201 kts | 330° |
| 2026-05-04 11:49 | 49.17887 | -2.57869 | 3007 ft | 199 kts | 9° |
| 2026-05-04 11:49 | 49.19117 | -2.57034 | 3006 ft | 196 kts | 47° |
| 2026-05-04 11:49 | 49.19767 | -2.55257 | 3019 ft | 194 kts | 75° |
| 2026-05-04 11:50 | 49.20085 | -2.53254 | 3011 ft | 194 kts | 80° |
| 2026-05-04 11:50 | 49.20028 | -2.51239 | 2998 ft | 191 kts | 114° |
| 2026-05-04 11:50 | 49.19450 | -2.49392 | 3012 ft | 193 kts | 114° |
| 2026-05-04 11:50 | 49.18946 | -2.47491 | 3006 ft | 193 kts | 107° |
| 2026-05-04 11:51 | 49.18745 | -2.45465 | 3006 ft | 194 kts | 91° |
| 2026-05-04 11:51 | 49.18808 | -2.43457 | 3016 ft | 181 kts | 86° |
| 2026-05-04 11:51 | 49.18940 | -2.41620 | 2959 ft | 168 kts | 84° |
| 2026-05-04 11:51 | 49.19082 | -2.39872 | 2807 ft | 162 kts | 84° |
| 2026-05-04 11:52 | 49.19223 | -2.38198 | 2602 ft | 155 kts | 84° |
| 2026-05-04 11:52 | 49.19356 | -2.36623 | 2408 ft | 147 kts | 83° |
| 2026-05-04 11:52 | 49.19485 | -2.35108 | 2206 ft | 142 kts | 83° |
| 2026-05-04 11:52 | 49.19611 | -2.33619 | 2024 ft | 141 kts | 83° |
| 2026-05-04 11:53 | 49.19736 | -2.32140 | 1830 ft | 140 kts | 83° |
| 2026-05-04 11:53 | 49.19860 | -2.30671 | 1646 ft | 139 kts | 82° |
| 2026-05-04 11:53 | 49.19984 | -2.29205 | 1449 ft | 139 kts | 82° |
| 2026-05-04 11:53 | 49.20108 | -2.27737 | 1257 ft | 139 kts | 82° |
| 2026-05-04 11:55 | 49.20881 | -2.18627 | 283 ft | 26 kts | 82° |
| 2026-05-04 11:55 | 49.20881 | -2.18435 | 281 ft | 13 kts | 113° |
| 2026-05-04 11:56 | 49.20832 | -2.18379 | 283 ft | 0 kts | 168° |
| 2026-05-04 11:56 | 49.20827 | -2.18378 | 284 ft | 6 kts | 174° |
| 2026-05-04 11:56 | 49.20762 | -2.18421 | 284 ft | 11 kts | 220° |
| 2026-05-04 11:57 | 49.20732 | -2.18513 | 284 ft | 9 kts | 257° |
| 2026-05-04 11:57 | 49.20723 | -2.18607 | 284 ft | 11 kts | 263° |
| 2026-05-04 11:57 | 49.20713 | -2.18736 | 284 ft | 15 kts | 263° |
| 2026-05-04 11:57 | 49.20701 | -2.18895 | 284 ft | 14 kts | 262° |
| 2026-05-04 11:58 | 49.20688 | -2.19039 | 286 ft | 13 kts | 262° |
| 2026-05-04 11:58 | 49.20679 | -2.19167 | 284 ft | 11 kts | 269° |
| 2026-05-04 11:58 | 49.20691 | -2.19276 | 284 ft | 10 kts | 284° |
| 2026-05-04 11:58 | 49.20706 | -2.19371 | 286 ft | 8 kts | 282° |
| 2026-05-04 11:59 | 49.20708 | -2.19452 | 284 ft | 7 kts | 263° |
| 2026-05-04 11:59 | 49.20701 | -2.19522 | 284 ft | 6 kts | 259° |
| 2026-05-04 11:59 | 49.20691 | -2.19582 | 287 ft | 5 kts | 251° |
| 2026-05-04 11:59 | 49.20669 | -2.19636 | 287 ft | 9 kts | 225° |
| 2026-05-04 12:00 | 49.20626 | -2.19696 | 285 ft | 8 kts | 237° |
| 2026-05-04 12:00 | 49.20596 | -2.19750 | 284 ft | 6 kts | 200° |
| 2026-05-04 12:00 | 49.20556 | -2.19752 | 284 ft | 3 kts | 177° |